sensor_id;sensor_type;location;lat;lon;timestamp;pressure;altitude;pressure_sealevel;temperature;humidity
46111;BME280;31849;55.992;37.252;2023-03-04T00:04:11;97401.13;;;-0.78;58.37
46111;BME280;31849;55.992;37.252;2023-03-04T00:09:14;97389.25;;;-0.72;58.23
46111;BME280;31849;55.992;37.252;2023-03-04T00:14:20;97389.34;;;-0.62;58.54
46111;BME280;31849;55.992;37.252;2023-03-04T00:19:23;97376.53;;;-0.67;58.52
46111;BME280;31849;55.992;37.252;2023-03-04T00:24:27;97366.28;;;-0.70;58.72
46111;BME280;31849;55.992;37.252;2023-03-04T00:29:32;97362.75;;;-0.87;58.90
46111;BME280;31849;55.992;37.252;2023-03-04T00:34:35;97349.09;;;-0.93;58.75
46111;BME280;31849;55.992;37.252;2023-03-04T00:39:39;97345.50;;;-1.12;59.42
46111;BME280;31849;55.992;37.252;2023-03-04T00:44:44;97341.16;;;-1.20;59.93
46111;BME280;31849;55.992;37.252;2023-03-04T00:49:47;97335.25;;;-1.18;59.16
46111;BME280;31849;55.992;37.252;2023-03-04T00:54:50;97325.91;;;-1.17;59.25
46111;BME280;31849;55.992;37.252;2023-03-04T00:59:55;97320.88;;;-1.13;59.37
46111;BME280;31849;55.992;37.252;2023-03-04T01:04:58;97321.56;;;-1.28;61.66
46111;BME280;31849;55.992;37.252;2023-03-04T01:10:03;97315.81;;;-1.08;59.75
46111;BME280;31849;55.992;37.252;2023-03-04T01:15:11;97315.19;;;-0.81;59.30
46111;BME280;31849;55.992;37.252;2023-03-04T01:20:16;97310.84;;;-0.90;59.85
46111;BME280;31849;55.992;37.252;2023-03-04T01:25:19;97304.00;;;-0.95;59.94
46111;BME280;31849;55.992;37.252;2023-03-04T01:30:24;97303.13;;;-0.97;60.72
46111;BME280;31849;55.992;37.252;2023-03-04T01:35:27;97300.47;;;-1.11;60.82
46111;BME280;31849;55.992;37.252;2023-03-04T01:40:31;97292.91;;;-1.02;60.54
46111;BME280;31849;55.992;37.252;2023-03-04T01:45:37;97285.38;;;-0.85;60.31
46111;BME280;31849;55.992;37.252;2023-03-04T01:50:41;97284.41;;;-1.01;60.88
46111;BME280;31849;55.992;37.252;2023-03-04T01:55:44;97272.59;;;-0.90;61.16
46111;BME280;31849;55.992;37.252;2023-03-04T02:00:49;97270.97;;;-0.80;60.95
46111;BME280;31849;55.992;37.252;2023-03-04T02:05:54;97268.44;;;-0.77;60.87
46111;BME280;31849;55.992;37.252;2023-03-04T02:10:58;97257.31;;;-0.83;60.95
46111;BME280;31849;55.992;37.252;2023-03-04T02:16:03;97257.41;;;-0.76;60.97
46111;BME280;31849;55.992;37.252;2023-03-04T02:21:12;97253.25;;;-0.54;60.71
46111;BME280;31849;55.992;37.252;2023-03-04T02:26:20;97256.66;;;-0.56;60.58
46111;BME280;31849;55.992;37.252;2023-03-04T02:31:26;97261.63;;;-0.76;61.40
46111;BME280;31849;55.992;37.252;2023-03-04T02:36:31;97251.38;;;-0.85;61.66
46111;BME280;31849;55.992;37.252;2023-03-04T02:41:36;97241.03;;;-1.02;62.70
46111;BME280;31849;55.992;37.252;2023-03-04T02:46:40;97222.34;;;-0.97;61.69
46111;BME280;31849;55.992;37.252;2023-03-04T02:51:44;97213.91;;;-0.86;61.04
46111;BME280;31849;55.992;37.252;2023-03-04T02:56:50;97212.13;;;-0.98;61.95
46111;BME280;31849;55.992;37.252;2023-03-04T03:01:54;97192.59;;;-0.98;61.09
46111;BME280;31849;55.992;37.252;2023-03-04T03:06:58;97207.91;;;-0.98;61.85
46111;BME280;31849;55.992;37.252;2023-03-04T03:12:03;97200.28;;;-0.93;61.81
46111;BME280;31849;55.992;37.252;2023-03-04T03:17:07;97184.22;;;-0.81;61.49
46111;BME280;31849;55.992;37.252;2023-03-04T03:22:11;97163.75;;;-0.89;61.91
46111;BME280;31849;55.992;37.252;2023-03-04T03:27:16;97180.78;;;-0.80;61.66
46111;BME280;31849;55.992;37.252;2023-03-04T03:32:19;97162.94;;;-0.79;61.11
46111;BME280;31849;55.992;37.252;2023-03-04T03:37:23;97154.34;;;-0.96;62.47
46111;BME280;31849;55.992;37.252;2023-03-04T03:42:28;97154.38;;;-0.90;61.60
46111;BME280;31849;55.992;37.252;2023-03-04T03:47:31;97143.22;;;-1.09;62.44
46111;BME280;31849;55.992;37.252;2023-03-04T03:52:34;97132.91;;;-1.26;62.92
46111;BME280;31849;55.992;37.252;2023-03-04T03:57:39;97132.03;;;-1.27;62.97
46111;BME280;31849;55.992;37.252;2023-03-04T04:02:43;97118.41;;;-1.35;63.25
46111;BME280;31849;55.992;37.252;2023-03-04T04:07:46;97117.53;;;-1.34;62.95
46111;BME280;31849;55.992;37.252;2023-03-04T04:12:52;97104.72;;;-1.48;64.06
46111;BME280;31849;55.992;37.252;2023-03-04T04:17:55;97103.13;;;-1.30;63.56
46111;BME280;31849;55.992;37.252;2023-03-04T04:22:59;97095.53;;;-1.19;63.33
46111;BME280;31849;55.992;37.252;2023-03-04T04:28:04;97100.66;;;-1.16;63.70
46111;BME280;31849;55.992;37.252;2023-03-04T04:33:09;97081.19;;;-1.05;62.93
46111;BME280;31849;55.992;37.252;2023-03-04T04:38:12;97090.34;;;-1.36;64.60
46111;BME280;31849;55.992;37.252;2023-03-04T04:43:17;97084.59;;;-1.03;63.23
46111;BME280;31849;55.992;37.252;2023-03-04T04:48:20;97095.66;;;-1.01;63.43
46111;BME280;31849;55.992;37.252;2023-03-04T04:53:24;97077.88;;;-0.84;62.90
46111;BME280;31849;55.992;37.252;2023-03-04T04:58:29;97089.78;;;-0.87;62.92
46111;BME280;31849;55.992;37.252;2023-03-04T05:03:33;97075.34;;;-0.75;62.65
46111;BME280;31849;55.992;37.252;2023-03-04T05:08:37;97081.34;;;-0.68;62.64
46111;BME280;31849;55.992;37.252;2023-03-04T05:13:42;97086.47;;;-0.62;62.48
46111;BME280;31849;55.992;37.252;2023-03-04T05:18:45;97086.38;;;-0.79;62.91
46111;BME280;31849;55.992;37.252;2023-03-04T05:23:49;97079.66;;;-0.66;62.32
46111;BME280;31849;55.992;37.252;2023-03-04T05:28:54;97084.03;;;-0.25;61.64
46111;BME280;31849;55.992;37.252;2023-03-04T05:33:57;97073.00;;;-0.07;61.31
46111;BME280;31849;55.992;37.252;2023-03-04T05:39:01;97070.38;;;-0.36;62.35
46111;BME280;31849;55.992;37.252;2023-03-04T05:44:06;97071.25;;;-0.26;62.08
46111;BME280;31849;55.992;37.252;2023-03-04T05:49:09;97053.38;;;-0.22;62.18
46111;BME280;31849;55.992;37.252;2023-03-04T05:54:12;97044.88;;;-0.07;61.82
46111;BME280;31849;55.992;37.252;2023-03-04T05:59:18;97044.03;;;0.01;61.79
46111;BME280;31849;55.992;37.252;2023-03-04T06:04:21;97038.91;;;0.22;61.18
46111;BME280;31849;55.992;37.252;2023-03-04T06:09:25;97043.19;;;0.19;61.42
46111;BME280;31849;55.992;37.252;2023-03-04T06:14:30;97042.31;;;0.38;61.09
46111;BME280;31849;55.992;37.252;2023-03-04T06:19:33;97031.22;;;0.68;60.34
46111;BME280;31849;55.992;37.252;2023-03-04T06:24:38;97026.06;;;0.76;60.03
46111;BME280;31849;55.992;37.252;2023-03-04T06:29:43;97022.59;;;0.99;59.68
46111;BME280;31849;55.992;37.252;2023-03-04T06:34:47;97017.53;;;0.74;60.05
46111;BME280;31849;55.992;37.252;2023-03-04T06:39:50;97013.19;;;0.98;59.90
46111;BME280;31849;55.992;37.252;2023-03-04T06:44:55;96996.16;;;0.97;59.77
46111;BME280;31849;55.992;37.252;2023-03-04T06:49:59;96993.53;;;1.09;59.51
46111;BME280;31849;55.992;37.252;2023-03-04T06:55:05;96972.06;;;1.36;59.19
46111;BME280;31849;55.992;37.252;2023-03-04T07:00:12;96971.56;;;2.06;57.93
46111;BME280;31849;55.992;37.252;2023-03-04T07:05:16;96962.16;;;2.09;58.08
46111;BME280;31849;55.992;37.252;2023-03-04T07:10:19;96958.59;;;2.23;57.65
46111;BME280;31849;55.992;37.252;2023-03-04T07:15:24;96955.88;;;2.38;57.39
46111;BME280;31849;55.992;37.252;2023-03-04T07:20:27;96942.22;;;5.51;50.87
46111;BME280;31849;55.992;37.252;2023-03-04T07:25:32;96926.47;;;5.99;49.75
46111;BME280;31849;55.992;37.252;2023-03-04T07:30:37;96928.63;;;5.05;50.88
46111;BME280;31849;55.992;37.252;2023-03-04T07:35:40;96928.78;;;4.54;51.96
46111;BME280;31849;55.992;37.252;2023-03-04T07:40:44;96900.09;;;4.29;52.13
46111;BME280;31849;55.992;37.252;2023-03-04T07:45:49;96914.78;;;3.70;53.15
46111;BME280;31849;55.992;37.252;2023-03-04T07:51:02;96908.41;;;3.93;53.08
46111;BME280;31849;55.992;37.252;2023-03-04T07:56:11;96908.22;;;3.52;53.49
46111;BME280;31849;55.992;37.252;2023-03-04T08:01:18;96899.25;;;3.21;54.43
46111;BME280;31849;55.992;37.252;2023-03-04T08:06:23;96900.06;;;3.26;53.64
46111;BME280;31849;55.992;37.252;2023-03-04T08:11:28;96895.09;;;3.15;54.08
46111;BME280;31849;55.992;37.252;2023-03-04T08:16:33;96893.25;;;3.22;54.15
46111;BME280;31849;55.992;37.252;2023-03-04T08:21:37;96883.78;;;3.28;53.85
46111;BME280;31849;55.992;37.252;2023-03-04T08:26:42;96885.00;;;3.01;54.65
46111;BME280;31849;55.992;37.252;2023-03-04T08:31:47;96873.69;;;3.69;53.48
46111;BME280;31849;55.992;37.252;2023-03-04T08:36:51;96859.28;;;4.10;52.91
46111;BME280;31849;55.992;37.252;2023-03-04T08:41:55;96851.63;;;4.07;53.12
46111;BME280;31849;55.992;37.252;2023-03-04T08:46:59;96838.31;;;4.74;51.29
46111;BME280;31849;55.992;37.252;2023-03-04T08:52:03;96838.63;;;4.99;49.13
46111;BME280;31849;55.992;37.252;2023-03-04T08:57:06;96833.63;;;5.29;50.27
46111;BME280;31849;55.992;37.252;2023-03-04T09:02:11;96822.75;;;4.36;50.64
46111;BME280;31849;55.992;37.252;2023-03-04T09:07:15;96810.59;;;4.01;50.77
46111;BME280;31849;55.992;37.252;2023-03-04T09:12:18;96813.44;;;3.85;51.14
46111;BME280;31849;55.992;37.252;2023-03-04T09:17:23;96789.88;;;3.62;51.63
46111;BME280;31849;55.992;37.252;2023-03-04T09:22:26;96799.78;;;3.33;51.90
46111;BME280;31849;55.992;37.252;2023-03-04T09:27:30;96783.00;;;3.12;52.44
46111;BME280;31849;55.992;37.252;2023-03-04T09:32:34;96766.47;;;3.29;52.04
46111;BME280;31849;55.992;37.252;2023-03-04T09:37:38;96770.19;;;3.11;52.57
46111;BME280;31849;55.992;37.252;2023-03-04T09:42:45;96755.03;;;2.94;52.94
46111;BME280;31849;55.992;37.252;2023-03-04T09:47:52;96736.25;;;2.92;52.48
46111;BME280;31849;55.992;37.252;2023-03-04T09:53:06;96731.91;;;2.95;52.57
46111;BME280;31849;55.992;37.252;2023-03-04T09:58:26;96720.56;;;4.04;50.55
46111;BME280;31849;55.992;37.252;2023-03-04T10:03:42;96715.94;;;3.78;51.11
46111;BME280;31849;55.992;37.252;2023-03-04T10:08:53;96705.97;;;3.12;52.29
46111;BME280;31849;55.992;37.252;2023-03-04T10:14:05;96709.53;;;3.04;52.39
46111;BME280;31849;55.992;37.252;2023-03-04T10:19:29;96681.94;;;2.65;52.22
46111;BME280;31849;55.992;37.252;2023-03-04T10:24:38;96677.84;;;3.06;52.54
46111;BME280;31849;55.992;37.252;2023-03-04T10:29:41;96679.06;;;3.33;51.73
46111;BME280;31849;55.992;37.252;2023-03-04T10:34:46;96661.50;;;3.57;51.29
46111;BME280;31849;55.992;37.252;2023-03-04T10:39:50;96653.91;;;3.51;50.90
46111;BME280;31849;55.992;37.252;2023-03-04T10:44:55;96647.31;;;3.38;51.43
46111;BME280;31849;55.992;37.252;2023-03-04T10:50:02;96647.97;;;3.02;51.84
46111;BME280;31849;55.992;37.252;2023-03-04T10:55:14;96622.19;;;2.60;53.12
46111;BME280;31849;55.992;37.252;2023-03-04T11:00:24;96619.19;;;2.85;53.14
46111;BME280;31849;55.992;37.252;2023-03-04T11:05:31;96619.88;;;2.41;54.17
46111;BME280;31849;55.992;37.252;2023-03-04T11:10:39;96611.91;;;2.60;53.99
46111;BME280;31849;55.992;37.252;2023-03-04T11:15:54;96608.28;;;2.73;54.56
46111;BME280;31849;55.992;37.252;2023-03-04T11:21:00;96604.06;;;3.16;53.57
46111;BME280;31849;55.992;37.252;2023-03-04T11:26:08;96580.28;;;2.58;55.06
46111;BME280;31849;55.992;37.252;2023-03-04T11:31:17;96573.66;;;2.46;55.32
46111;BME280;31849;55.992;37.252;2023-03-04T11:36:30;96564.38;;;2.39;55.83
46111;BME280;31849;55.992;37.252;2023-03-04T11:41:38;96556.66;;;2.39;56.20
46111;BME280;31849;55.992;37.252;2023-03-04T11:46:55;96552.91;;;2.60;56.18
46111;BME280;31849;55.992;37.252;2023-03-04T11:52:08;96551.19;;;2.60;57.10
46111;BME280;31849;55.992;37.252;2023-03-04T11:57:22;96536.88;;;2.47;57.85
46111;BME280;31849;55.992;37.252;2023-03-04T12:02:36;96532.91;;;2.31;58.52
46111;BME280;31849;55.992;37.252;2023-03-04T12:08:02;96529.63;;;1.63;61.80
46111;BME280;31849;55.992;37.252;2023-03-04T12:13:39;96525.78;;;1.93;61.14
46111;BME280;31849;55.992;37.252;2023-03-04T12:19:00;96513.00;;;1.92;62.09
46111;BME280;31849;55.992;37.252;2023-03-04T12:24:23;96500.38;;;1.81;61.48
46111;BME280;31849;55.992;37.252;2023-03-04T12:29:38;96492.59;;;1.87;61.94
46111;BME280;31849;55.992;37.252;2023-03-04T12:34:58;96487.63;;;1.75;62.57
46111;BME280;31849;55.992;37.252;2023-03-04T12:40:25;96479.00;;;1.81;61.70
46111;BME280;31849;55.992;37.252;2023-03-04T12:45:38;96459.78;;;1.55;63.32
46111;BME280;31849;55.992;37.252;2023-03-04T12:50:52;96470.13;;;2.02;62.22
46111;BME280;31849;55.992;37.252;2023-03-04T12:56:04;96454.38;;;1.72;62.64
46111;BME280;31849;55.992;37.252;2023-03-04T13:01:15;96451.09;;;1.65;63.14
46111;BME280;31849;55.992;37.252;2023-03-04T13:06:29;96442.88;;;1.43;64.14
46111;BME280;31849;55.992;37.252;2023-03-04T13:11:49;96418.19;;;1.39;63.91
46111;BME280;31849;55.992;37.252;2023-03-04T13:16:55;96430.34;;;1.79;62.72
46111;BME280;31849;55.992;37.252;2023-03-04T13:21:59;96409.41;;;1.54;63.60
46111;BME280;31849;55.992;37.252;2023-03-04T13:32:40;96402.97;;;1.84;62.86
46111;BME280;31849;55.992;37.252;2023-03-04T13:37:56;96403.44;;;1.55;64.16
46111;BME280;31849;55.992;37.252;2023-03-04T13:43:25;96396.34;;;1.71;62.97
46111;BME280;31849;55.992;37.252;2023-03-04T13:48:32;96380.25;;;1.63;63.69
46111;BME280;31849;55.992;37.252;2023-03-04T13:53:42;96381.84;;;1.70;63.64
46111;BME280;31849;55.992;37.252;2023-03-04T13:58:47;96363.91;;;1.70;63.54
46111;BME280;31849;55.992;37.252;2023-03-04T14:03:53;96364.94;;;1.60;63.43
46111;BME280;31849;55.992;37.252;2023-03-04T14:08:57;96352.31;;;1.50;64.01
46111;BME280;31849;55.992;37.252;2023-03-04T14:14:04;96355.56;;;1.58;63.83
46111;BME280;31849;55.992;37.252;2023-03-04T14:19:15;96340.94;;;1.67;63.73
46111;BME280;31849;55.992;37.252;2023-03-04T14:24:20;96341.16;;;1.51;63.89
46111;BME280;31849;55.992;37.252;2023-03-04T14:29:26;96326.59;;;1.56;63.77
46111;BME280;31849;55.992;37.252;2023-03-04T14:34:33;96329.00;;;1.64;63.77
46111;BME280;31849;55.992;37.252;2023-03-04T14:39:37;96320.91;;;1.39;64.29
46111;BME280;31849;55.992;37.252;2023-03-04T14:44:43;96319.19;;;1.38;64.56
46111;BME280;31849;55.992;37.252;2023-03-04T14:49:51;96309.59;;;1.51;64.50
46111;BME280;31849;55.992;37.252;2023-03-04T14:55:00;96308.09;;;1.39;65.14
46111;BME280;31849;55.992;37.252;2023-03-04T15:00:15;96290.34;;;1.30;65.25
46111;BME280;31849;55.992;37.252;2023-03-04T15:05:24;96291.88;;;1.40;64.71
46111;BME280;31849;55.992;37.252;2023-03-04T15:10:30;96285.16;;;1.34;65.44
46111;BME280;31849;55.992;37.252;2023-03-04T15:15:37;96280.53;;;1.55;64.61
46111;BME280;31849;55.992;37.252;2023-03-04T15:20:52;96271.88;;;1.62;64.15
46111;BME280;31849;55.992;37.252;2023-03-04T15:25:57;96270.34;;;1.52;64.47
46111;BME280;31849;55.992;37.252;2023-03-04T15:31:01;96267.63;;;1.60;64.40
46111;BME280;31849;55.992;37.252;2023-03-04T15:36:12;96263.34;;;1.60;65.42
46111;BME280;31849;55.992;37.252;2023-03-04T15:41:21;96262.72;;;1.94;63.97
46111;BME280;31849;55.992;37.252;2023-03-04T15:46:25;96250.03;;;1.88;64.06
46111;BME280;31849;55.992;37.252;2023-03-04T15:51:30;96244.75;;;1.96;64.31
46111;BME280;31849;55.992;37.252;2023-03-04T15:56:33;96244.16;;;1.83;64.19
46111;BME280;31849;55.992;37.252;2023-03-04T16:01:37;96233.34;;;1.67;64.49
46111;BME280;31849;55.992;37.252;2023-03-04T16:06:43;96235.72;;;1.78;64.54
46111;BME280;31849;55.992;37.252;2023-03-04T16:11:46;96225.91;;;1.53;64.80
46111;BME280;31849;55.992;37.252;2023-03-04T16:16:50;96223.28;;;1.57;64.78
46111;BME280;31849;55.992;37.252;2023-03-04T16:21:55;96215.13;;;1.37;65.85
46111;BME280;31849;55.992;37.252;2023-03-04T16:26:59;96205.88;;;1.75;64.87
46111;BME280;31849;55.992;37.252;2023-03-04T16:32:02;96207.00;;;1.60;64.80
46111;BME280;31849;55.992;37.252;2023-03-04T16:37:13;96203.22;;;1.34;66.33
46111;BME280;31849;55.992;37.252;2023-03-04T16:42:18;96196.81;;;1.57;64.97
46111;BME280;31849;55.992;37.252;2023-03-04T16:47:23;96191.56;;;1.63;64.92
46111;BME280;31849;55.992;37.252;2023-03-04T16:52:30;96171.41;;;1.48;65.66
46111;BME280;31849;55.992;37.252;2023-03-04T16:57:34;96171.53;;;1.42;65.98
46111;BME280;31849;55.992;37.252;2023-03-04T17:02:37;96162.47;;;1.23;66.33
46111;BME280;31849;55.992;37.252;2023-03-04T17:07:42;96166.53;;;1.35;66.60
46111;BME280;31849;55.992;37.252;2023-03-04T17:12:45;96158.75;;;1.40;66.81
46111;BME280;31849;55.992;37.252;2023-03-04T17:17:49;96155.44;;;1.35;66.56
46111;BME280;31849;55.992;37.252;2023-03-04T17:22:55;96154.28;;;1.50;65.82
46111;BME280;31849;55.992;37.252;2023-03-04T17:27:58;96151.97;;;1.37;66.30
46111;BME280;31849;55.992;37.252;2023-03-04T17:33:01;96147.06;;;1.27;66.80
46111;BME280;31849;55.992;37.252;2023-03-04T17:38:07;96141.72;;;1.37;66.11
46111;BME280;31849;55.992;37.252;2023-03-04T17:43:10;96155.31;;;1.41;66.48
46111;BME280;31849;55.992;37.252;2023-03-04T17:48:14;96151.66;;;1.54;65.80
46111;BME280;31849;55.992;37.252;2023-03-04T17:53:19;96150.88;;;1.51;65.73
46111;BME280;31849;55.992;37.252;2023-03-04T17:58:23;96151.94;;;1.39;65.86
46111;BME280;31849;55.992;37.252;2023-03-04T18:03:26;96157.81;;;1.46;65.55
46111;BME280;31849;55.992;37.252;2023-03-04T18:08:32;96143.63;;;1.29;65.67
46111;BME280;31849;55.992;37.252;2023-03-04T18:13:36;96145.66;;;1.55;65.53
46111;BME280;31849;55.992;37.252;2023-03-04T18:18:40;96155.72;;;1.63;64.80
46111;BME280;31849;55.992;37.252;2023-03-04T18:23:45;96149.47;;;1.76;64.69
46111;BME280;31849;55.992;37.252;2023-03-04T18:28:49;96161.06;;;1.52;65.09
46111;BME280;31849;55.992;37.252;2023-03-04T18:33:52;96153.25;;;1.58;64.44
46111;BME280;31849;55.992;37.252;2023-03-04T18:38:58;96167.53;;;1.70;65.03
46111;BME280;31849;55.992;37.252;2023-03-04T18:44:03;96143.94;;;1.56;64.60
46111;BME280;31849;55.992;37.252;2023-03-04T18:49:11;96154.03;;;1.64;63.62
46111;BME280;31849;55.992;37.252;2023-03-04T18:54:16;96154.00;;;1.65;64.12
46111;BME280;31849;55.992;37.252;2023-03-04T18:59:23;96148.75;;;1.71;63.43
46111;BME280;31849;55.992;37.252;2023-03-04T19:04:29;96149.38;;;1.39;63.77
46111;BME280;31849;55.992;37.252;2023-03-04T19:09:34;96148.72;;;1.28;64.23
46111;BME280;31849;55.992;37.252;2023-03-04T19:14:38;96147.69;;;1.38;63.90
46111;BME280;31849;55.992;37.252;2023-03-04T19:19:41;96160.94;;;1.15;64.60
46111;BME280;31849;55.992;37.252;2023-03-04T19:24:46;96157.34;;;1.25;63.96
46111;BME280;31849;55.992;37.252;2023-03-04T19:29:49;96154.88;;;1.20;63.69
46111;BME280;31849;55.992;37.252;2023-03-04T19:34:53;96159.38;;;1.06;64.07
46111;BME280;31849;55.992;37.252;2023-03-04T19:39:57;96160.06;;;1.14;64.21
46111;BME280;31849;55.992;37.252;2023-03-04T19:45:01;96154.84;;;1.22;64.22
46111;BME280;31849;55.992;37.252;2023-03-04T19:50:11;96144.25;;;0.94;64.11
46111;BME280;31849;55.992;37.252;2023-03-04T19:55:16;96153.47;;;1.02;63.93
46111;BME280;31849;55.992;37.252;2023-03-04T20:00:19;96156.81;;;1.06;64.24
46111;BME280;31849;55.992;37.252;2023-03-04T20:05:25;96154.63;;;0.84;64.10
46111;BME280;31849;55.992;37.252;2023-03-04T20:10:31;96153.56;;;0.96;63.69
46111;BME280;31849;55.992;37.252;2023-03-04T20:15:41;96145.72;;;0.57;64.26
46111;BME280;31849;55.992;37.252;2023-03-04T20:20:44;96145.72;;;0.57;63.61
46111;BME280;31849;55.992;37.252;2023-03-04T20:25:51;96146.75;;;0.45;63.99
46111;BME280;31849;55.992;37.252;2023-03-04T20:31:10;96149.38;;;0.41;63.84
46111;BME280;31849;55.992;37.252;2023-03-04T20:36:14;96138.97;;;0.51;63.21
46111;BME280;31849;55.992;37.252;2023-03-04T20:41:19;96131.28;;;0.53;63.48
46111;BME280;31849;55.992;37.252;2023-03-04T20:46:24;96140.56;;;0.59;63.36
46111;BME280;31849;55.992;37.252;2023-03-04T20:51:27;96140.72;;;0.49;63.01
46111;BME280;31849;55.992;37.252;2023-03-04T20:56:32;96140.91;;;0.37;63.27
46111;BME280;31849;55.992;37.252;2023-03-04T21:01:40;96137.66;;;0.27;63.52
46111;BME280;31849;55.992;37.252;2023-03-04T21:06:44;96139.38;;;0.28;62.86
46111;BME280;31849;55.992;37.252;2023-03-04T21:11:49;96141.66;;;0.45;62.54
46111;BME280;31849;55.992;37.252;2023-03-04T21:16:53;96129.81;;;0.38;62.74
46111;BME280;31849;55.992;37.252;2023-03-04T21:21:58;96143.59;;;0.29;63.06
46111;BME280;31849;55.992;37.252;2023-03-04T21:27:03;96141.97;;;0.24;62.49
46111;BME280;31849;55.992;37.252;2023-03-04T21:32:12;96132.38;;;0.38;63.10
46111;BME280;31849;55.992;37.252;2023-03-04T21:37:25;96134.31;;;0.22;63.38
46111;BME280;31849;55.992;37.252;2023-03-04T21:42:30;96140.16;;;0.32;62.77
46111;BME280;31849;55.992;37.252;2023-03-04T21:47:33;96141.13;;;0.23;62.97
46111;BME280;31849;55.992;37.252;2023-03-04T21:52:36;96139.53;;;0.16;63.18
46111;BME280;31849;55.992;37.252;2023-03-04T21:57:41;96129.03;;;0.34;62.61
46111;BME280;31849;55.992;37.252;2023-03-04T22:02:45;96135.78;;;0.40;62.30
46111;BME280;31849;55.992;37.252;2023-03-04T22:07:48;96129.94;;;0.30;62.79
46111;BME280;31849;55.992;37.252;2023-03-04T22:12:53;96134.28;;;0.27;62.76
46111;BME280;31849;55.992;37.252;2023-03-04T22:17:56;96143.00;;;0.13;62.28
46111;BME280;31849;55.992;37.252;2023-03-04T22:23:00;96133.69;;;0.08;62.58
46111;BME280;31849;55.992;37.252;2023-03-04T22:28:05;96142.34;;;-0.01;62.17
46111;BME280;31849;55.992;37.252;2023-03-04T22:33:09;96137.63;;;-0.32;63.11
46111;BME280;31849;55.992;37.252;2023-03-04T22:38:12;96121.59;;;-0.43;62.78
46111;BME280;31849;55.992;37.252;2023-03-04T22:43:17;96141.97;;;-0.39;63.18
46111;BME280;31849;55.992;37.252;2023-03-04T22:48:21;96131.56;;;-0.23;62.73
46111;BME280;31849;55.992;37.252;2023-03-04T22:53:24;96127.44;;;-0.33;62.54
46111;BME280;31849;55.992;37.252;2023-03-04T22:58:29;96138.31;;;-0.19;63.00
46111;BME280;31849;55.992;37.252;2023-03-04T23:03:33;96134.13;;;-0.23;63.06
46111;BME280;31849;55.992;37.252;2023-03-04T23:08:38;96137.41;;;-0.16;62.58
46111;BME280;31849;55.992;37.252;2023-03-04T23:13:43;96134.34;;;-0.42;62.94
46111;BME280;31849;55.992;37.252;2023-03-04T23:18:48;96138.53;;;-0.36;63.08
46111;BME280;31849;55.992;37.252;2023-03-04T23:23:52;96133.56;;;-0.45;63.31
46111;BME280;31849;55.992;37.252;2023-03-04T23:28:57;96131.75;;;-0.37;62.98
46111;BME280;31849;55.992;37.252;2023-03-04T23:34:03;96134.28;;;-0.36;62.67
46111;BME280;31849;55.992;37.252;2023-03-04T23:39:09;96127.69;;;-0.55;63.55
46111;BME280;31849;55.992;37.252;2023-03-04T23:44:14;96124.28;;;-0.52;63.07
46111;BME280;31849;55.992;37.252;2023-03-04T23:49:17;96118.03;;;-0.31;62.50
46111;BME280;31849;55.992;37.252;2023-03-04T23:54:21;96121.06;;;-0.70;63.41
46111;BME280;31849;55.992;37.252;2023-03-04T23:59:26;96111.81;;;-0.77;63.96
